sensor_id;sensor_type;location;lat;lon;timestamp;P1;durP1;ratioP1;P2;durP2;ratioP2
71696;SDS011;59528;59.082;37.926;2022-10-19T00:02:00;1.83;;;1.20;;
71696;SDS011;59528;59.082;37.926;2022-10-19T00:04:25;1.53;;;1.20;;
71696;SDS011;59528;59.082;37.926;2022-10-19T00:06:51;2.30;;;1.37;;
71696;SDS011;59528;59.082;37.926;2022-10-19T00:09:17;2.27;;;1.10;;
71696;SDS011;59528;59.082;37.926;2022-10-19T00:11:44;1.90;;;1.20;;
71696;SDS011;59528;59.082;37.926;2022-10-19T00:14:10;3.73;;;1.40;;
71696;SDS011;59528;59.082;37.926;2022-10-19T00:16:38;3.00;;;1.17;;
71696;SDS011;59528;59.082;37.926;2022-10-19T00:19:06;1.30;;;0.90;;
71696;SDS011;59528;59.082;37.926;2022-10-19T00:21:32;1.83;;;1.00;;
71696;SDS011;59528;59.082;37.926;2022-10-19T00:23:57;2.23;;;0.90;;
71696;SDS011;59528;59.082;37.926;2022-10-19T00:26:23;3.30;;;0.67;;
71696;SDS011;59528;59.082;37.926;2022-10-19T00:28:51;0.77;;;0.60;;
71696;SDS011;59528;59.082;37.926;2022-10-19T00:31:17;1.83;;;0.57;;
71696;SDS011;59528;59.082;37.926;2022-10-19T00:33:43;1.23;;;0.70;;
71696;SDS011;59528;59.082;37.926;2022-10-19T00:36:29;0.97;;;0.70;;
71696;SDS011;59528;59.082;37.926;2022-10-19T00:38:55;1.33;;;0.70;;
71696;SDS011;59528;59.082;37.926;2022-10-19T00:41:22;2.33;;;0.87;;
71696;SDS011;59528;59.082;37.926;2022-10-19T00:43:52;0.60;;;0.47;;
71696;SDS011;59528;59.082;37.926;2022-10-19T00:46:18;0.90;;;0.40;;
71696;SDS011;59528;59.082;37.926;2022-10-19T00:48:43;1.20;;;0.50;;
71696;SDS011;59528;59.082;37.926;2022-10-19T00:51:09;2.60;;;0.40;;
71696;SDS011;59528;59.082;37.926;2022-10-19T00:53:35;0.93;;;0.37;;
71696;SDS011;59528;59.082;37.926;2022-10-19T00:56:02;0.70;;;0.40;;
71696;SDS011;59528;59.082;37.926;2022-10-19T00:58:33;0.90;;;0.30;;
71696;SDS011;59528;59.082;37.926;2022-10-19T01:00:59;0.73;;;0.37;;
71696;SDS011;59528;59.082;37.926;2022-10-19T01:03:25;1.63;;;0.33;;
71696;SDS011;59528;59.082;37.926;2022-10-19T01:05:51;0.80;;;0.37;;
71696;SDS011;59528;59.082;37.926;2022-10-19T01:08:17;1.83;;;0.40;;
71696;SDS011;59528;59.082;37.926;2022-10-19T01:10:45;0.57;;;0.30;;
71696;SDS011;59528;59.082;37.926;2022-10-19T01:13:20;1.60;;;0.30;;
71696;SDS011;59528;59.082;37.926;2022-10-19T01:15:56;1.03;;;0.37;;
71696;SDS011;59528;59.082;37.926;2022-10-19T01:23:50;0.30;;;0.27;;
71696;SDS011;59528;59.082;37.926;2022-10-19T01:34:00;1.97;;;0.50;;
71696;SDS011;59528;59.082;37.926;2022-10-19T01:41:32;0.87;;;0.30;;
71696;SDS011;59528;59.082;37.926;2022-10-19T01:44:10;1.93;;;0.23;;
71696;SDS011;59528;59.082;37.926;2022-10-19T01:46:42;0.20;;;0.20;;
71696;SDS011;59528;59.082;37.926;2022-10-19T01:49:19;0.20;;;0.20;;
71696;SDS011;59528;59.082;37.926;2022-10-19T01:51:48;1.30;;;0.40;;
71696;SDS011;59528;59.082;37.926;2022-10-19T01:54:16;1.83;;;0.47;;
71696;SDS011;59528;59.082;37.926;2022-10-19T01:56:42;1.40;;;0.97;;
71696;SDS011;59528;59.082;37.926;2022-10-19T01:59:09;1.87;;;1.20;;
71696;SDS011;59528;59.082;37.926;2022-10-19T02:01:36;3.27;;;0.77;;
71696;SDS011;59528;59.082;37.926;2022-10-19T02:04:04;3.03;;;1.60;;
71696;SDS011;59528;59.082;37.926;2022-10-19T02:06:29;2.37;;;1.33;;
71696;SDS011;59528;59.082;37.926;2022-10-19T02:12:37;5.33;;;2.50;;
71696;SDS011;59528;59.082;37.926;2022-10-19T02:15:05;3.80;;;2.10;;
71696;SDS011;59528;59.082;37.926;2022-10-19T02:17:34;8.27;;;2.53;;
71696;SDS011;59528;59.082;37.926;2022-10-19T02:20:02;9.03;;;3.10;;
71696;SDS011;59528;59.082;37.926;2022-10-19T02:22:28;9.37;;;3.10;;
71696;SDS011;59528;59.082;37.926;2022-10-19T02:24:53;9.30;;;3.57;;
71696;SDS011;59528;59.082;37.926;2022-10-19T02:27:19;8.43;;;3.57;;
71696;SDS011;59528;59.082;37.926;2022-10-19T02:29:45;8.60;;;3.33;;
71696;SDS011;59528;59.082;37.926;2022-10-19T02:32:10;8.63;;;3.70;;
71696;SDS011;59528;59.082;37.926;2022-10-19T02:34:37;7.40;;;2.67;;
71696;SDS011;59528;59.082;37.926;2022-10-19T02:37:03;6.30;;;3.00;;
71696;SDS011;59528;59.082;37.926;2022-10-19T02:39:29;5.70;;;2.20;;
71696;SDS011;59528;59.082;37.926;2022-10-19T02:42:06;4.47;;;2.53;;
71696;SDS011;59528;59.082;37.926;2022-10-19T02:44:35;5.10;;;2.30;;
71696;SDS011;59528;59.082;37.926;2022-10-19T02:47:05;6.03;;;3.17;;
71696;SDS011;59528;59.082;37.926;2022-10-19T02:49:33;8.90;;;5.57;;
71696;SDS011;59528;59.082;37.926;2022-10-19T02:52:00;25.43;;;13.60;;
71696;SDS011;59528;59.082;37.926;2022-10-19T02:54:26;36.70;;;19.47;;
71696;SDS011;59528;59.082;37.926;2022-10-19T02:56:52;40.97;;;22.80;;
71696;SDS011;59528;59.082;37.926;2022-10-19T02:59:18;36.50;;;20.33;;
71696;SDS011;59528;59.082;37.926;2022-10-19T03:01:44;45.47;;;24.70;;
71696;SDS011;59528;59.082;37.926;2022-10-19T03:04:09;30.23;;;17.87;;
71696;SDS011;59528;59.082;37.926;2022-10-19T03:06:36;27.60;;;15.37;;
71696;SDS011;59528;59.082;37.926;2022-10-19T03:09:01;26.63;;;13.73;;
71696;SDS011;59528;59.082;37.926;2022-10-19T03:11:27;23.77;;;13.03;;
71696;SDS011;59528;59.082;37.926;2022-10-19T03:13:53;21.80;;;11.00;;
71696;SDS011;59528;59.082;37.926;2022-10-19T03:16:18;18.47;;;9.10;;
71696;SDS011;59528;59.082;37.926;2022-10-19T03:18:44;14.80;;;7.93;;
71696;SDS011;59528;59.082;37.926;2022-10-19T03:21:12;20.53;;;11.40;;
71696;SDS011;59528;59.082;37.926;2022-10-19T03:23:38;54.00;;;30.03;;
71696;SDS011;59528;59.082;37.926;2022-10-19T03:26:05;29.27;;;16.77;;
71696;SDS011;59528;59.082;37.926;2022-10-19T03:28:31;48.43;;;28.33;;
71696;SDS011;59528;59.082;37.926;2022-10-19T03:30:56;36.43;;;20.93;;
71696;SDS011;59528;59.082;37.926;2022-10-19T03:33:22;30.60;;;14.80;;
71696;SDS011;59528;59.082;37.926;2022-10-19T03:35:48;26.10;;;12.53;;
71696;SDS011;59528;59.082;37.926;2022-10-19T03:38:14;21.73;;;11.63;;
71696;SDS011;59528;59.082;37.926;2022-10-19T03:40:40;20.13;;;9.67;;
71696;SDS011;59528;59.082;37.926;2022-10-19T03:43:05;14.20;;;7.80;;
71696;SDS011;59528;59.082;37.926;2022-10-19T03:45:31;14.03;;;7.50;;
71696;SDS011;59528;59.082;37.926;2022-10-19T03:47:57;12.00;;;6.57;;
71696;SDS011;59528;59.082;37.926;2022-10-19T03:50:22;13.83;;;6.60;;
71696;SDS011;59528;59.082;37.926;2022-10-19T03:52:48;51.10;;;24.57;;
71696;SDS011;59528;59.082;37.926;2022-10-19T03:55:14;38.83;;;20.13;;
71696;SDS011;59528;59.082;37.926;2022-10-19T03:57:42;25.07;;;13.30;;
71696;SDS011;59528;59.082;37.926;2022-10-19T04:00:08;21.13;;;10.27;;
71696;SDS011;59528;59.082;37.926;2022-10-19T04:02:40;20.53;;;9.83;;
71696;SDS011;59528;59.082;37.926;2022-10-19T04:05:05;16.03;;;7.70;;
71696;SDS011;59528;59.082;37.926;2022-10-19T04:07:31;19.77;;;8.10;;
71696;SDS011;59528;59.082;37.926;2022-10-19T04:09:57;12.97;;;6.70;;
71696;SDS011;59528;59.082;37.926;2022-10-19T04:12:22;16.63;;;7.33;;
71696;SDS011;59528;59.082;37.926;2022-10-19T04:14:48;14.13;;;7.33;;
71696;SDS011;59528;59.082;37.926;2022-10-19T04:17:13;15.27;;;7.87;;
71696;SDS011;59528;59.082;37.926;2022-10-19T04:19:39;15.00;;;7.53;;
71696;SDS011;59528;59.082;37.926;2022-10-19T04:22:04;14.87;;;7.70;;
71696;SDS011;59528;59.082;37.926;2022-10-19T04:24:30;14.43;;;7.67;;
71696;SDS011;59528;59.082;37.926;2022-10-19T04:26:55;14.07;;;7.30;;
71696;SDS011;59528;59.082;37.926;2022-10-19T04:29:22;11.70;;;6.23;;
71696;SDS011;59528;59.082;37.926;2022-10-19T04:31:49;10.57;;;5.70;;
71696;SDS011;59528;59.082;37.926;2022-10-19T04:34:16;12.50;;;5.83;;
71696;SDS011;59528;59.082;37.926;2022-10-19T04:36:41;14.07;;;5.50;;
71696;SDS011;59528;59.082;37.926;2022-10-19T04:39:07;10.17;;;4.93;;
71696;SDS011;59528;59.082;37.926;2022-10-19T04:41:33;10.93;;;5.70;;
71696;SDS011;59528;59.082;37.926;2022-10-19T04:43:59;13.07;;;5.37;;
71696;SDS011;59528;59.082;37.926;2022-10-19T04:46:25;7.97;;;4.53;;
71696;SDS011;59528;59.082;37.926;2022-10-19T04:48:52;10.17;;;4.30;;
71696;SDS011;59528;59.082;37.926;2022-10-19T04:51:18;10.77;;;3.93;;
71696;SDS011;59528;59.082;37.926;2022-10-19T04:53:44;9.90;;;4.00;;
71696;SDS011;59528;59.082;37.926;2022-10-19T04:56:13;8.53;;;4.00;;
71696;SDS011;59528;59.082;37.926;2022-10-19T04:58:39;6.93;;;3.73;;
71696;SDS011;59528;59.082;37.926;2022-10-19T05:01:09;9.37;;;4.50;;
71696;SDS011;59528;59.082;37.926;2022-10-19T05:03:35;8.03;;;4.03;;
71696;SDS011;59528;59.082;37.926;2022-10-19T05:06:01;7.37;;;3.57;;
71696;SDS011;59528;59.082;37.926;2022-10-19T05:08:27;9.40;;;4.07;;
71696;SDS011;59528;59.082;37.926;2022-10-19T05:10:52;6.73;;;3.80;;
71696;SDS011;59528;59.082;37.926;2022-10-19T05:13:18;9.33;;;5.00;;
71696;SDS011;59528;59.082;37.926;2022-10-19T05:15:53;8.10;;;4.03;;
71696;SDS011;59528;59.082;37.926;2022-10-19T05:18:19;6.47;;;4.03;;
71696;SDS011;59528;59.082;37.926;2022-10-19T05:20:44;8.83;;;4.63;;
71696;SDS011;59528;59.082;37.926;2022-10-19T05:23:10;10.33;;;4.73;;
71696;SDS011;59528;59.082;37.926;2022-10-19T05:25:35;9.37;;;4.37;;
71696;SDS011;59528;59.082;37.926;2022-10-19T05:28:01;9.57;;;4.57;;
71696;SDS011;59528;59.082;37.926;2022-10-19T05:30:26;10.53;;;4.47;;
71696;SDS011;59528;59.082;37.926;2022-10-19T05:32:52;11.77;;;5.00;;
71696;SDS011;59528;59.082;37.926;2022-10-19T05:35:17;8.77;;;5.00;;
71696;SDS011;59528;59.082;37.926;2022-10-19T05:37:43;10.77;;;4.53;;
71696;SDS011;59528;59.082;37.926;2022-10-19T05:40:09;7.83;;;4.07;;
71696;SDS011;59528;59.082;37.926;2022-10-19T05:42:35;12.13;;;4.13;;
71696;SDS011;59528;59.082;37.926;2022-10-19T05:45:00;6.63;;;3.57;;
71696;SDS011;59528;59.082;37.926;2022-10-19T05:47:26;5.10;;;2.70;;
71696;SDS011;59528;59.082;37.926;2022-10-19T05:49:51;6.30;;;2.47;;
71696;SDS011;59528;59.082;37.926;2022-10-19T05:52:17;4.17;;;2.00;;
71696;SDS011;59528;59.082;37.926;2022-10-19T05:54:42;4.30;;;1.90;;
71696;SDS011;59528;59.082;37.926;2022-10-19T05:57:08;6.50;;;1.50;;
71696;SDS011;59528;59.082;37.926;2022-10-19T05:59:33;3.70;;;1.87;;
71696;SDS011;59528;59.082;37.926;2022-10-19T06:01:59;3.53;;;1.60;;
71696;SDS011;59528;59.082;37.926;2022-10-19T06:04:25;3.20;;;1.20;;
71696;SDS011;59528;59.082;37.926;2022-10-19T06:06:50;3.40;;;1.33;;
71696;SDS011;59528;59.082;37.926;2022-10-19T06:09:16;1.97;;;1.00;;
71696;SDS011;59528;59.082;37.926;2022-10-19T06:11:42;1.57;;;0.90;;
71696;SDS011;59528;59.082;37.926;2022-10-19T06:14:11;2.60;;;1.10;;
71696;SDS011;59528;59.082;37.926;2022-10-19T06:16:37;1.60;;;1.00;;
71696;SDS011;59528;59.082;37.926;2022-10-19T06:19:03;1.57;;;0.80;;
71696;SDS011;59528;59.082;37.926;2022-10-19T06:21:30;1.70;;;0.80;;
71696;SDS011;59528;59.082;37.926;2022-10-19T06:24:00;0.93;;;0.70;;
71696;SDS011;59528;59.082;37.926;2022-10-19T06:26:27;1.73;;;1.07;;
71696;SDS011;59528;59.082;37.926;2022-10-19T06:28:53;2.27;;;0.87;;
71696;SDS011;59528;59.082;37.926;2022-10-19T06:31:19;1.93;;;0.83;;
71696;SDS011;59528;59.082;37.926;2022-10-19T06:33:45;2.37;;;1.03;;
71696;SDS011;59528;59.082;37.926;2022-10-19T06:36:12;1.00;;;0.67;;
71696;SDS011;59528;59.082;37.926;2022-10-19T06:38:38;1.70;;;0.80;;
71696;SDS011;59528;59.082;37.926;2022-10-19T06:41:04;1.10;;;0.80;;
71696;SDS011;59528;59.082;37.926;2022-10-19T06:43:30;0.87;;;0.53;;
71696;SDS011;59528;59.082;37.926;2022-10-19T06:45:56;1.43;;;0.87;;
71696;SDS011;59528;59.082;37.926;2022-10-19T06:48:22;2.87;;;0.70;;
71696;SDS011;59528;59.082;37.926;2022-10-19T06:50:58;0.97;;;0.70;;
71696;SDS011;59528;59.082;37.926;2022-10-19T06:53:24;1.33;;;0.63;;
71696;SDS011;59528;59.082;37.926;2022-10-19T06:55:49;1.77;;;0.53;;
71696;SDS011;59528;59.082;37.926;2022-10-19T06:58:15;1.10;;;0.70;;
71696;SDS011;59528;59.082;37.926;2022-10-19T07:00:40;2.27;;;0.63;;
71696;SDS011;59528;59.082;37.926;2022-10-19T07:03:06;1.60;;;0.50;;
71696;SDS011;59528;59.082;37.926;2022-10-19T07:05:31;1.10;;;0.60;;
71696;SDS011;59528;59.082;37.926;2022-10-19T07:07:57;1.97;;;0.70;;
71696;SDS011;59528;59.082;37.926;2022-10-19T07:10:23;1.20;;;0.63;;
71696;SDS011;59528;59.082;37.926;2022-10-19T07:12:48;0.57;;;0.40;;
71696;SDS011;59528;59.082;37.926;2022-10-19T07:15:14;1.33;;;0.60;;
71696;SDS011;59528;59.082;37.926;2022-10-19T07:17:39;1.17;;;0.60;;
71696;SDS011;59528;59.082;37.926;2022-10-19T07:20:05;1.03;;;0.70;;
71696;SDS011;59528;59.082;37.926;2022-10-19T07:22:30;1.10;;;0.53;;
71696;SDS011;59528;59.082;37.926;2022-10-19T07:24:56;2.37;;;0.63;;
71696;SDS011;59528;59.082;37.926;2022-10-19T07:27:23;2.30;;;0.57;;
71696;SDS011;59528;59.082;37.926;2022-10-19T07:29:48;2.67;;;0.90;;
71696;SDS011;59528;59.082;37.926;2022-10-19T07:32:14;1.53;;;0.60;;
71696;SDS011;59528;59.082;37.926;2022-10-19T07:34:40;0.90;;;0.50;;
71696;SDS011;59528;59.082;37.926;2022-10-19T07:37:05;2.57;;;0.80;;
71696;SDS011;59528;59.082;37.926;2022-10-19T07:39:31;0.90;;;0.63;;
71696;SDS011;59528;59.082;37.926;2022-10-19T07:41:56;0.97;;;0.60;;
71696;SDS011;59528;59.082;37.926;2022-10-19T07:44:22;3.17;;;0.80;;
71696;SDS011;59528;59.082;37.926;2022-10-19T07:46:47;1.53;;;0.77;;
71696;SDS011;59528;59.082;37.926;2022-10-19T07:49:13;3.43;;;1.00;;
71696;SDS011;59528;59.082;37.926;2022-10-19T07:51:40;2.67;;;0.80;;
71696;SDS011;59528;59.082;37.926;2022-10-19T07:54:06;2.77;;;0.80;;
71696;SDS011;59528;59.082;37.926;2022-10-19T07:56:32;3.57;;;0.93;;
71696;SDS011;59528;59.082;37.926;2022-10-19T07:58:58;1.00;;;0.70;;
71696;SDS011;59528;59.082;37.926;2022-10-19T08:01:25;1.57;;;1.00;;
71696;SDS011;59528;59.082;37.926;2022-10-19T08:03:51;1.53;;;0.80;;
71696;SDS011;59528;59.082;37.926;2022-10-19T08:06:17;1.20;;;0.90;;
71696;SDS011;59528;59.082;37.926;2022-10-19T08:08:44;1.47;;;0.87;;
71696;SDS011;59528;59.082;37.926;2022-10-19T08:13:42;1.93;;;0.70;;
71696;SDS011;59528;59.082;37.926;2022-10-19T08:19:06;1.10;;;0.60;;
71696;SDS011;59528;59.082;37.926;2022-10-19T08:21:32;2.07;;;0.90;;
71696;SDS011;59528;59.082;37.926;2022-10-19T08:23:58;1.40;;;0.60;;
71696;SDS011;59528;59.082;37.926;2022-10-19T08:26:26;2.23;;;1.50;;
71696;SDS011;59528;59.082;37.926;2022-10-19T08:29:03;2.10;;;0.67;;
71696;SDS011;59528;59.082;37.926;2022-10-19T08:31:29;1.07;;;0.70;;
71696;SDS011;59528;59.082;37.926;2022-10-19T08:33:55;0.80;;;0.60;;
71696;SDS011;59528;59.082;37.926;2022-10-19T08:36:20;2.37;;;0.70;;
71696;SDS011;59528;59.082;37.926;2022-10-19T08:38:47;1.27;;;0.87;;
71696;SDS011;59528;59.082;37.926;2022-10-19T08:43:46;1.70;;;0.80;;
71696;SDS011;59528;59.082;37.926;2022-10-19T08:48:38;1.10;;;0.80;;
71696;SDS011;59528;59.082;37.926;2022-10-19T08:51:07;1.57;;;0.70;;
71696;SDS011;59528;59.082;37.926;2022-10-19T08:53:36;2.57;;;0.70;;
71696;SDS011;59528;59.082;37.926;2022-10-19T09:08:44;0.80;;;0.60;;
71696;SDS011;59528;59.082;37.926;2022-10-19T09:11:10;1.87;;;0.87;;
71696;SDS011;59528;59.082;37.926;2022-10-19T09:13:40;1.13;;;0.60;;
71696;SDS011;59528;59.082;37.926;2022-10-19T09:16:13;1.50;;;0.47;;
71696;SDS011;59528;59.082;37.926;2022-10-19T09:18:39;3.40;;;0.70;;
71696;SDS011;59528;59.082;37.926;2022-10-19T09:21:09;0.90;;;0.60;;
71696;SDS011;59528;59.082;37.926;2022-10-19T09:23:51;1.60;;;0.90;;
71696;SDS011;59528;59.082;37.926;2022-10-19T09:26:21;1.00;;;0.60;;
71696;SDS011;59528;59.082;37.926;2022-10-19T09:29:00;1.10;;;0.60;;
71696;SDS011;59528;59.082;37.926;2022-10-19T09:31:31;1.90;;;0.80;;
71696;SDS011;59528;59.082;37.926;2022-10-19T09:34:02;1.03;;;0.60;;
71696;SDS011;59528;59.082;37.926;2022-10-19T09:36:37;0.80;;;0.60;;
71696;SDS011;59528;59.082;37.926;2022-10-19T09:39:05;2.83;;;0.80;;
71696;SDS011;59528;59.082;37.926;2022-10-19T09:41:30;0.83;;;0.70;;
71696;SDS011;59528;59.082;37.926;2022-10-19T09:43:57;1.37;;;0.77;;
71696;SDS011;59528;59.082;37.926;2022-10-19T09:46:35;2.37;;;0.67;;
71696;SDS011;59528;59.082;37.926;2022-10-19T09:49:03;1.77;;;0.73;;
71696;SDS011;59528;59.082;37.926;2022-10-19T09:54:34;1.43;;;0.90;;
71696;SDS011;59528;59.082;37.926;2022-10-19T09:57:00;1.97;;;0.80;;
71696;SDS011;59528;59.082;37.926;2022-10-19T09:59:28;0.97;;;0.60;;
71696;SDS011;59528;59.082;37.926;2022-10-19T10:01:59;1.10;;;0.60;;
71696;SDS011;59528;59.082;37.926;2022-10-19T10:04:25;1.50;;;0.70;;
71696;SDS011;59528;59.082;37.926;2022-10-19T10:06:51;1.80;;;0.57;;
71696;SDS011;59528;59.082;37.926;2022-10-19T10:09:23;0.97;;;0.70;;
71696;SDS011;59528;59.082;37.926;2022-10-19T10:11:50;0.77;;;0.50;;
71696;SDS011;59528;59.082;37.926;2022-10-19T10:16:43;2.70;;;0.60;;
71696;SDS011;59528;59.082;37.926;2022-10-19T10:19:14;1.60;;;0.60;;
71696;SDS011;59528;59.082;37.926;2022-10-19T10:21:47;1.30;;;0.60;;
71696;SDS011;59528;59.082;37.926;2022-10-19T10:26:51;1.57;;;0.70;;
71696;SDS011;59528;59.082;37.926;2022-10-19T10:29:18;1.17;;;0.80;;
71696;SDS011;59528;59.082;37.926;2022-10-19T10:31:45;1.67;;;0.80;;
71696;SDS011;59528;59.082;37.926;2022-10-19T10:34:15;0.87;;;0.67;;
71696;SDS011;59528;59.082;37.926;2022-10-19T10:36:41;0.80;;;0.47;;
71696;SDS011;59528;59.082;37.926;2022-10-19T10:39:11;1.03;;;0.60;;
71696;SDS011;59528;59.082;37.926;2022-10-19T10:41:39;1.73;;;0.80;;
71696;SDS011;59528;59.082;37.926;2022-10-19T10:44:14;1.53;;;0.70;;
71696;SDS011;59528;59.082;37.926;2022-10-19T10:46:59;0.83;;;0.70;;
71696;SDS011;59528;59.082;37.926;2022-10-19T10:49:43;1.27;;;0.70;;
71696;SDS011;59528;59.082;37.926;2022-10-19T10:52:14;2.73;;;0.63;;
71696;SDS011;59528;59.082;37.926;2022-10-19T10:54:55;1.20;;;0.80;;
71696;SDS011;59528;59.082;37.926;2022-10-19T10:57:21;2.17;;;1.03;;
71696;SDS011;59528;59.082;37.926;2022-10-19T10:59:52;2.40;;;0.87;;
71696;SDS011;59528;59.082;37.926;2022-10-19T11:05:17;2.20;;;0.63;;
71696;SDS011;59528;59.082;37.926;2022-10-19T11:07:42;2.57;;;0.93;;
71696;SDS011;59528;59.082;37.926;2022-10-19T11:10:23;1.60;;;0.90;;
71696;SDS011;59528;59.082;37.926;2022-10-19T11:13:09;1.67;;;0.63;;
71696;SDS011;59528;59.082;37.926;2022-10-19T11:20:39;3.77;;;0.63;;
71696;SDS011;59528;59.082;37.926;2022-10-19T11:30:28;3.43;;;0.87;;
71696;SDS011;59528;59.082;37.926;2022-10-19T11:45:51;0.80;;;0.60;;
71696;SDS011;59528;59.082;37.926;2022-10-19T11:53:15;0.90;;;0.50;;
71696;SDS011;59528;59.082;37.926;2022-10-19T12:01:01;2.40;;;0.60;;
71696;SDS011;59528;59.082;37.926;2022-10-19T12:03:42;1.67;;;0.60;;
71696;SDS011;59528;59.082;37.926;2022-10-19T12:14:16;1.10;;;0.50;;
71696;SDS011;59528;59.082;37.926;2022-10-19T12:16:43;1.80;;;0.60;;
71696;SDS011;59528;59.082;37.926;2022-10-19T12:19:20;1.40;;;0.50;;
71696;SDS011;59528;59.082;37.926;2022-10-19T12:21:46;1.30;;;0.60;;
71696;SDS011;59528;59.082;37.926;2022-10-19T12:24:16;0.80;;;0.50;;
71696;SDS011;59528;59.082;37.926;2022-10-19T12:26:43;4.17;;;0.60;;
71696;SDS011;59528;59.082;37.926;2022-10-19T12:29:22;0.70;;;0.40;;
71696;SDS011;59528;59.082;37.926;2022-10-19T12:31:51;3.33;;;0.63;;
71696;SDS011;59528;59.082;37.926;2022-10-19T12:34:30;2.03;;;0.60;;
71696;SDS011;59528;59.082;37.926;2022-10-19T12:37:08;2.77;;;0.50;;
71696;SDS011;59528;59.082;37.926;2022-10-19T12:47:26;2.13;;;0.50;;
71696;SDS011;59528;59.082;37.926;2022-10-19T12:49:53;2.80;;;0.70;;
71696;SDS011;59528;59.082;37.926;2022-10-19T12:58:01;3.40;;;0.70;;
71696;SDS011;59528;59.082;37.926;2022-10-19T13:00:32;1.97;;;0.67;;
71696;SDS011;59528;59.082;37.926;2022-10-19T13:03:00;7.43;;;1.07;;
71696;SDS011;59528;59.082;37.926;2022-10-19T13:05:27;1.50;;;0.90;;
71696;SDS011;59528;59.082;37.926;2022-10-19T13:07:53;3.93;;;0.97;;
71696;SDS011;59528;59.082;37.926;2022-10-19T13:10:24;3.13;;;0.90;;
71696;SDS011;59528;59.082;37.926;2022-10-19T13:12:50;2.73;;;1.00;;
71696;SDS011;59528;59.082;37.926;2022-10-19T13:18:00;4.17;;;1.40;;
71696;SDS011;59528;59.082;37.926;2022-10-19T13:25:25;2.97;;;1.13;;
71696;SDS011;59528;59.082;37.926;2022-10-19T13:27:52;2.60;;;1.03;;
71696;SDS011;59528;59.082;37.926;2022-10-19T13:35:44;2.10;;;1.20;;
71696;SDS011;59528;59.082;37.926;2022-10-19T13:43:17;4.23;;;1.30;;
71696;SDS011;59528;59.082;37.926;2022-10-19T13:45:43;2.13;;;1.30;;
71696;SDS011;59528;59.082;37.926;2022-10-19T13:48:20;3.37;;;1.20;;
71696;SDS011;59528;59.082;37.926;2022-10-19T13:50:53;2.87;;;0.90;;
71696;SDS011;59528;59.082;37.926;2022-10-19T13:53:23;3.37;;;0.90;;
71696;SDS011;59528;59.082;37.926;2022-10-19T14:03:38;9.77;;;3.53;;
71696;SDS011;59528;59.082;37.926;2022-10-19T14:09:09;9.67;;;4.30;;
71696;SDS011;59528;59.082;37.926;2022-10-19T14:11:39;5.57;;;3.07;;
71696;SDS011;59528;59.082;37.926;2022-10-19T14:14:13;6.97;;;3.67;;
71696;SDS011;59528;59.082;37.926;2022-10-19T14:19:18;6.37;;;3.60;;
71696;SDS011;59528;59.082;37.926;2022-10-19T14:21:51;7.63;;;2.63;;
71696;SDS011;59528;59.082;37.926;2022-10-19T14:24:22;6.00;;;2.30;;
71696;SDS011;59528;59.082;37.926;2022-10-19T14:26:51;3.93;;;2.20;;
71696;SDS011;59528;59.082;37.926;2022-10-19T14:29:17;4.77;;;2.00;;
71696;SDS011;59528;59.082;37.926;2022-10-19T14:31:42;5.73;;;1.73;;
71696;SDS011;59528;59.082;37.926;2022-10-19T14:34:08;3.63;;;1.80;;
71696;SDS011;59528;59.082;37.926;2022-10-19T14:36:35;4.07;;;1.70;;
71696;SDS011;59528;59.082;37.926;2022-10-19T14:39:02;2.77;;;1.40;;
71696;SDS011;59528;59.082;37.926;2022-10-19T14:41:31;2.57;;;1.37;;
71696;SDS011;59528;59.082;37.926;2022-10-19T14:43:58;3.33;;;1.10;;
71696;SDS011;59528;59.082;37.926;2022-10-19T14:46:33;5.83;;;1.13;;
71696;SDS011;59528;59.082;37.926;2022-10-19T14:48:59;2.70;;;1.10;;
71696;SDS011;59528;59.082;37.926;2022-10-19T14:51:40;3.33;;;1.30;;
71696;SDS011;59528;59.082;37.926;2022-10-19T14:57:11;2.90;;;1.20;;
71696;SDS011;59528;59.082;37.926;2022-10-19T14:59:34;6.17;;;1.60;;
71696;SDS011;59528;59.082;37.926;2022-10-19T15:02:01;5.37;;;1.50;;
71696;SDS011;59528;59.082;37.926;2022-10-19T15:04:29;7.67;;;1.57;;
71696;SDS011;59528;59.082;37.926;2022-10-19T15:06:56;2.77;;;1.57;;
71696;SDS011;59528;59.082;37.926;2022-10-19T15:09:30;3.07;;;1.57;;
71696;SDS011;59528;59.082;37.926;2022-10-19T15:11:59;5.47;;;1.90;;
71696;SDS011;59528;59.082;37.926;2022-10-19T15:14:29;5.13;;;1.80;;
71696;SDS011;59528;59.082;37.926;2022-10-19T15:21:46;3.03;;;1.50;;
71696;SDS011;59528;59.082;37.926;2022-10-19T15:24:21;4.83;;;1.80;;
71696;SDS011;59528;59.082;37.926;2022-10-19T15:26:49;4.30;;;2.03;;
71696;SDS011;59528;59.082;37.926;2022-10-19T15:29:19;6.53;;;1.90;;
71696;SDS011;59528;59.082;37.926;2022-10-19T15:31:45;4.20;;;2.07;;
71696;SDS011;59528;59.082;37.926;2022-10-19T15:34:26;7.33;;;1.80;;
71696;SDS011;59528;59.082;37.926;2022-10-19T15:36:57;5.47;;;2.17;;
71696;SDS011;59528;59.082;37.926;2022-10-19T15:39:25;4.13;;;1.70;;
71696;SDS011;59528;59.082;37.926;2022-10-19T15:41:52;4.23;;;1.80;;
71696;SDS011;59528;59.082;37.926;2022-10-19T15:44:31;5.40;;;1.70;;
71696;SDS011;59528;59.082;37.926;2022-10-19T15:52:14;3.23;;;1.97;;
71696;SDS011;59528;59.082;37.926;2022-10-19T15:54:39;7.67;;;2.13;;
71696;SDS011;59528;59.082;37.926;2022-10-19T15:57:18;3.40;;;2.00;;
71696;SDS011;59528;59.082;37.926;2022-10-19T15:59:45;4.53;;;2.00;;
71696;SDS011;59528;59.082;37.926;2022-10-19T16:02:13;5.57;;;2.03;;
71696;SDS011;59528;59.082;37.926;2022-10-19T16:04:38;3.43;;;1.90;;
71696;SDS011;59528;59.082;37.926;2022-10-19T16:07:04;3.77;;;1.47;;
71696;SDS011;59528;59.082;37.926;2022-10-19T16:09:29;3.33;;;1.63;;
71696;SDS011;59528;59.082;37.926;2022-10-19T16:11:55;6.03;;;1.60;;
71696;SDS011;59528;59.082;37.926;2022-10-19T16:14:22;5.83;;;1.50;;
71696;SDS011;59528;59.082;37.926;2022-10-19T16:16:48;7.13;;;2.93;;
71696;SDS011;59528;59.082;37.926;2022-10-19T16:19:17;6.37;;;3.90;;
71696;SDS011;59528;59.082;37.926;2022-10-19T16:21:48;5.30;;;3.30;;
71696;SDS011;59528;59.082;37.926;2022-10-19T16:24:14;5.17;;;2.47;;
71696;SDS011;59528;59.082;37.926;2022-10-19T16:26:39;4.10;;;2.50;;
71696;SDS011;59528;59.082;37.926;2022-10-19T16:29:05;4.10;;;1.90;;
71696;SDS011;59528;59.082;37.926;2022-10-19T16:31:31;4.97;;;1.90;;
71696;SDS011;59528;59.082;37.926;2022-10-19T16:33:56;2.97;;;2.00;;
71696;SDS011;59528;59.082;37.926;2022-10-19T16:36:22;3.47;;;1.90;;
71696;SDS011;59528;59.082;37.926;2022-10-19T16:38:48;2.63;;;1.70;;
71696;SDS011;59528;59.082;37.926;2022-10-19T16:41:13;2.90;;;1.50;;
71696;SDS011;59528;59.082;37.926;2022-10-19T16:43:39;3.67;;;1.50;;
71696;SDS011;59528;59.082;37.926;2022-10-19T16:46:04;2.80;;;1.43;;
71696;SDS011;59528;59.082;37.926;2022-10-19T16:48:30;2.10;;;1.30;;
71696;SDS011;59528;59.082;37.926;2022-10-19T16:53:27;2.30;;;1.20;;
71696;SDS011;59528;59.082;37.926;2022-10-19T16:55:52;2.37;;;1.17;;
71696;SDS011;59528;59.082;37.926;2022-10-19T16:58:27;2.47;;;1.10;;
71696;SDS011;59528;59.082;37.926;2022-10-19T17:00:53;1.63;;;0.90;;
71696;SDS011;59528;59.082;37.926;2022-10-19T17:03:20;4.20;;;1.00;;
71696;SDS011;59528;59.082;37.926;2022-10-19T17:05:46;1.37;;;0.90;;
71696;SDS011;59528;59.082;37.926;2022-10-19T17:08:12;1.80;;;1.17;;
71696;SDS011;59528;59.082;37.926;2022-10-19T17:10:37;2.43;;;1.10;;
71696;SDS011;59528;59.082;37.926;2022-10-19T17:13:03;3.63;;;1.20;;
71696;SDS011;59528;59.082;37.926;2022-10-19T17:15:28;3.07;;;1.43;;